BXP weather

Biała Podlaska Airfield
Biała Podlaska, Lublin, Poland

Public forecast

Using degrees Celsius for public forecast. Weather courtesy of forecast.io.

METAR (pilot weather report)

Closest report is Brest Airport, 29.0 nm (53.7 km) ENE. Retrieved 2019/03/24 10:30 UTC (28 minutes ago):

UMBB 241030Z 31007G10MPS 9000 NSC 09/M02 Q1021 R29/CLRD// NOSIG

TAF (pilot weather forecast)

Forecast is more than 12 hours old.

Closest forecast is Brest Airport, 29.0 nm (53.7 km) ENE. Retrieved 2018/08/29 12:21 UTC (7 months ago):

TAF UMBB 291405Z 2912/2924 34005MPS 6000 BKN015 TEMPO 2915/2918 3000 -SHRA SCT020CB TEMPO 2918/2924 2000 BR BKN005